createdAt,value
2018-09-06T00:00:31.168Z,21.8
2018-09-06T00:01:31.233Z,21.8
2018-09-06T00:02:31.526Z,21.8
2018-09-06T00:03:31.266Z,21.8
2018-09-06T00:04:31.881Z,21.8
2018-09-06T00:05:31.283Z,21.8
2018-09-06T00:06:31.443Z,21.79
2018-09-06T00:07:31.189Z,21.8
2018-09-06T00:08:31.422Z,21.8
2018-09-06T00:09:31.253Z,21.8
2018-09-06T00:10:31.392Z,21.79
2018-09-06T00:11:31.240Z,21.82
2018-09-06T00:12:31.295Z,21.79
2018-09-06T00:13:31.555Z,21.8
2018-09-06T00:14:31.514Z,21.8
2018-09-06T00:15:31.268Z,21.8
2018-09-06T00:16:31.495Z,21.79
2018-09-06T00:17:31.184Z,21.8
2018-09-06T00:18:31.489Z,21.79
2018-09-06T00:19:31.284Z,21.8
2018-09-06T00:20:31.584Z,21.8
2018-09-06T00:21:31.125Z,21.79
2018-09-06T00:22:31.395Z,21.81
2018-09-06T00:23:31.225Z,21.79
2018-09-06T00:24:31.306Z,21.8
2018-09-06T00:25:31.207Z,21.8
2018-09-06T00:26:31.352Z,21.78
2018-09-06T00:27:31.182Z,21.8
2018-09-06T00:28:31.453Z,21.79
2018-09-06T00:29:31.144Z,21.78
2018-09-06T00:30:31.427Z,21.8
2018-09-06T00:31:31.381Z,21.8
2018-09-06T00:32:31.453Z,21.8
2018-09-06T00:33:31.182Z,21.79
2018-09-06T00:34:31.320Z,21.8
2018-09-06T00:35:31.332Z,21.79
2018-09-06T00:36:31.494Z,21.79
2018-09-06T00:37:31.295Z,21.8
2018-09-06T00:38:31.482Z,21.8
2018-09-06T00:39:31.334Z,21.78
2018-09-06T00:40:31.334Z,21.8
2018-09-06T00:41:31.275Z,21.79
2018-09-06T00:42:31.258Z,21.78
2018-09-06T00:43:31.174Z,21.78
2018-09-06T00:44:31.682Z,21.79
2018-09-06T00:45:31.190Z,21.8
2018-09-06T00:46:31.392Z,21.78
2018-09-06T00:47:31.216Z,21.8
2018-09-06T00:48:31.439Z,21.77
2018-09-06T00:49:31.202Z,21.79
2018-09-06T00:50:31.507Z,21.77
2018-09-06T00:51:31.325Z,21.79
2018-09-06T00:52:31.305Z,21.8
2018-09-06T00:53:31.296Z,21.8
2018-09-06T00:54:31.471Z,21.8
2018-09-06T00:55:31.218Z,21.79
2018-09-06T00:56:31.289Z,21.77
2018-09-06T00:57:31.125Z,21.8
2018-09-06T00:58:31.247Z,21.78
2018-09-06T00:59:31.246Z,21.78
2018-09-06T01:00:31.408Z,21.77
2018-09-06T01:01:31.237Z,21.8
2018-09-06T01:02:31.251Z,21.77
2018-09-06T01:03:31.499Z,21.77
2018-09-06T01:04:31.358Z,21.79
2018-09-06T01:05:31.284Z,21.79
2018-09-06T01:06:31.435Z,21.78
2018-09-06T01:07:31.205Z,21.8
2018-09-06T01:08:31.349Z,21.77
2018-09-06T01:09:31.159Z,21.78
2018-09-06T01:10:31.322Z,21.81
2018-09-06T01:11:31.182Z,21.78
2018-09-06T01:12:31.442Z,21.79
2018-09-06T01:13:31.499Z,21.77
2018-09-06T01:14:31.432Z,21.77
2018-09-06T01:15:31.324Z,21.8
2018-09-06T01:16:31.380Z,21.79
2018-09-06T01:17:31.264Z,21.78
2018-09-06T01:18:31.278Z,21.78
2018-09-06T01:19:31.280Z,21.77
2018-09-06T01:20:31.346Z,21.79
2018-09-06T01:21:31.186Z,21.78
2018-09-06T01:22:31.479Z,21.8
2018-09-06T01:23:31.303Z,21.78
2018-09-06T01:24:31.300Z,21.8
2018-09-06T01:25:31.335Z,21.78
2018-09-06T01:26:31.348Z,21.78
2018-09-06T01:27:31.157Z,21.8
2018-09-06T01:28:31.391Z,21.77
2018-09-06T01:29:31.153Z,21.79
2018-09-06T01:30:31.428Z,21.77
2018-09-06T01:31:31.261Z,21.8
2018-09-06T01:32:31.294Z,21.79
2018-09-06T01:33:31.410Z,21.8
2018-09-06T01:34:31.429Z,21.79
2018-09-06T01:35:31.236Z,21.78
2018-09-06T01:36:31.316Z,21.78
2018-09-06T01:37:31.235Z,21.79
2018-09-06T01:38:31.672Z,21.78
2018-09-06T01:39:31.259Z,21.77
2018-09-06T01:40:31.267Z,21.79
2018-09-06T01:41:31.272Z,21.77
2018-09-06T01:42:31.432Z,21.77
2018-09-06T01:43:31.195Z,21.77
2018-09-06T01:44:31.295Z,21.77
2018-09-06T01:45:31.412Z,21.78
2018-09-06T01:46:31.511Z,21.78
2018-09-06T01:47:31.155Z,21.77
2018-09-06T01:48:31.415Z,21.8
2018-09-06T01:49:31.160Z,21.79
2018-09-06T01:50:31.779Z,21.77
2018-09-06T01:51:31.550Z,21.77
2018-09-06T01:52:31.286Z,21.76
2018-09-06T01:53:31.295Z,21.77
2018-09-06T01:54:31.463Z,21.78
2018-09-06T01:55:31.249Z,21.79
2018-09-06T01:56:31.294Z,21.78
2018-09-06T01:57:31.526Z,21.79
2018-09-06T01:58:31.602Z,21.77
2018-09-06T01:59:31.320Z,21.77
2018-09-06T02:00:31.542Z,21.79
2018-09-06T02:01:31.156Z,21.77
2018-09-06T02:02:31.310Z,21.77
2018-09-06T02:03:31.230Z,21.78
2018-09-06T02:04:31.373Z,21.79
2018-09-06T02:05:31.216Z,21.76
2018-09-06T02:06:31.438Z,21.77
2018-09-06T02:07:31.279Z,21.78
2018-09-06T02:08:31.315Z,21.77
2018-09-06T02:09:31.533Z,21.77
2018-09-06T02:10:31.229Z,21.77
2018-09-06T02:11:31.212Z,21.77
2018-09-06T02:12:31.395Z,21.76
2018-09-06T02:13:31.220Z,21.79
2018-09-06T02:14:31.471Z,21.78
2018-09-06T02:15:31.229Z,21.79
2018-09-06T02:16:31.460Z,21.77
2018-09-06T02:17:31.238Z,21.77
2018-09-06T02:18:31.398Z,21.77
2018-09-06T02:19:31.301Z,21.78
2018-09-06T02:20:31.458Z,21.77
2018-09-06T02:21:31.265Z,21.77
2018-09-06T02:22:31.408Z,21.78
2018-09-06T02:23:31.202Z,21.76
2018-09-06T02:24:32.034Z,21.79
2018-09-06T02:25:31.217Z,21.77
2018-09-06T02:26:31.479Z,21.77
2018-09-06T02:27:31.230Z,21.77
2018-09-06T02:28:31.421Z,21.78
2018-09-06T02:29:31.238Z,21.77
2018-09-06T02:30:31.430Z,21.78
2018-09-06T02:31:31.438Z,21.77
2018-09-06T02:32:31.495Z,21.77
2018-09-06T02:33:31.320Z,21.78
2018-09-06T02:34:31.297Z,21.77
2018-09-06T02:35:31.405Z,21.76
2018-09-06T02:36:31.451Z,21.77
2018-09-06T02:37:31.333Z,21.78
2018-09-06T02:38:31.378Z,21.77
2018-09-06T02:39:31.187Z,21.76
2018-09-06T02:40:31.703Z,21.79
2018-09-06T02:41:31.305Z,21.77
2018-09-06T02:42:31.306Z,21.76
2018-09-06T02:43:31.237Z,21.76
2018-09-06T02:44:31.292Z,21.78
2018-09-06T02:45:31.177Z,21.77
2018-09-06T02:46:31.547Z,21.78
2018-09-06T02:47:31.138Z,21.74
2018-09-06T02:48:31.439Z,21.77
2018-09-06T02:49:31.159Z,21.77
2018-09-06T02:50:31.597Z,21.76
2018-09-06T02:51:31.336Z,21.77
2018-09-06T02:52:31.544Z,21.78
2018-09-06T02:53:31.231Z,21.77
2018-09-06T02:54:31.543Z,21.77
2018-09-06T02:55:31.318Z,21.77
2018-09-06T02:56:31.396Z,21.77
2018-09-06T02:57:31.620Z,21.76
2018-09-06T02:58:31.263Z,21.77
2018-09-06T02:59:31.252Z,21.76
2018-09-06T03:00:31.289Z,21.77
2018-09-06T03:01:31.105Z,21.77
2018-09-06T03:02:31.367Z,21.77
2018-09-06T03:03:31.123Z,21.77
2018-09-06T03:04:31.531Z,21.77
2018-09-06T03:05:31.279Z,21.76
2018-09-06T03:06:31.402Z,21.75
2018-09-06T03:07:31.209Z,21.78
2018-09-06T03:08:31.428Z,21.78
2018-09-06T03:09:31.454Z,21.76
2018-09-06T03:10:31.404Z,21.77
2018-09-06T03:11:31.153Z,21.75
2018-09-06T03:12:31.433Z,21.77
2018-09-06T03:13:31.262Z,21.77
2018-09-06T03:14:31.576Z,21.77
2018-09-06T03:15:31.685Z,21.75
2018-09-06T03:16:31.390Z,21.77
2018-09-06T03:17:31.205Z,21.75
2018-09-06T03:18:31.340Z,21.77
2018-09-06T03:19:31.127Z,21.78
2018-09-06T03:20:31.577Z,21.75
2018-09-06T03:21:31.276Z,21.76
2018-09-06T03:22:31.326Z,21.74
2018-09-06T03:23:31.353Z,21.77
2018-09-06T03:24:31.361Z,21.75
2018-09-06T03:25:31.293Z,21.77
2018-09-06T03:26:31.419Z,21.76
2018-09-06T03:27:31.136Z,21.77
2018-09-06T03:28:31.381Z,21.76
2018-09-06T03:29:31.276Z,21.76
2018-09-06T03:30:31.724Z,21.76
2018-09-06T03:31:31.213Z,21.75
2018-09-06T03:32:31.346Z,21.76
2018-09-06T03:33:31.212Z,21.75
2018-09-06T03:34:31.424Z,21.76
2018-09-06T03:35:31.525Z,21.76
2018-09-06T03:36:31.397Z,21.77
2018-09-06T03:37:31.767Z,21.77
2018-09-06T03:38:31.463Z,21.77
2018-09-06T03:39:31.325Z,21.76
2018-09-06T03:40:31.160Z,21.76
2018-09-06T03:41:31.308Z,21.75
2018-09-06T03:42:31.408Z,21.77
2018-09-06T03:43:31.265Z,21.79
2018-09-06T03:44:31.404Z,21.75
2018-09-06T03:45:31.302Z,21.76
2018-09-06T03:46:31.435Z,21.76
2018-09-06T03:47:31.451Z,21.76
2018-09-06T03:48:31.448Z,21.77
2018-09-06T03:49:31.353Z,21.77
2018-09-06T03:50:32.008Z,21.77
2018-09-06T03:51:31.402Z,21.75
2018-09-06T03:52:31.496Z,21.76
2018-09-06T03:53:31.200Z,21.75
2018-09-06T03:54:31.533Z,21.75
2018-09-06T03:55:31.270Z,21.76
2018-09-06T03:56:31.196Z,21.73
2018-09-06T03:57:31.699Z,21.74
2018-09-06T03:58:31.573Z,21.74
2018-09-06T03:59:31.221Z,21.76
2018-09-06T04:00:31.557Z,21.75
2018-09-06T04:01:31.282Z,21.76
2018-09-06T04:02:31.440Z,21.74
2018-09-06T04:03:31.296Z,21.75
2018-09-06T04:04:31.231Z,21.75
2018-09-06T04:05:31.226Z,21.76
2018-09-06T04:06:31.351Z,21.75
2018-09-06T04:07:31.365Z,21.76
2018-09-06T04:08:31.319Z,21.75
2018-09-06T04:09:31.218Z,21.74
2018-09-06T04:10:31.307Z,21.76
2018-09-06T04:11:31.183Z,21.77
2018-09-06T04:12:31.225Z,21.76
2018-09-06T04:13:31.168Z,21.74
2018-09-06T04:14:31.297Z,21.75
2018-09-06T04:15:31.146Z,21.74
2018-09-06T04:16:31.540Z,21.77
2018-09-06T04:17:31.174Z,21.77
2018-09-06T04:18:31.809Z,21.75
2018-09-06T04:19:31.193Z,21.74
2018-09-06T04:20:31.372Z,21.74
2018-09-06T04:21:31.125Z,21.75
2018-09-06T04:22:31.796Z,21.77
2018-09-06T04:23:31.161Z,21.74
2018-09-06T04:24:31.419Z,21.74
2018-09-06T04:25:31.308Z,21.75
2018-09-06T04:26:31.283Z,21.76
2018-09-06T04:27:31.391Z,21.76
2018-09-06T04:28:31.691Z,21.75
2018-09-06T04:29:31.348Z,21.75
2018-09-06T04:30:31.336Z,21.74
2018-09-06T04:31:31.293Z,21.74
2018-09-06T04:32:31.428Z,21.76
2018-09-06T04:33:31.359Z,21.74
2018-09-06T04:34:31.558Z,21.75
2018-09-06T04:35:31.631Z,21.76
2018-09-06T04:36:31.300Z,21.74
2018-09-06T04:37:31.295Z,21.75
2018-09-06T04:38:31.336Z,21.75
2018-09-06T04:39:31.111Z,21.74
2018-09-06T04:40:31.291Z,21.74
2018-09-06T04:41:31.324Z,21.74
2018-09-06T04:42:31.409Z,21.74
2018-09-06T04:43:31.087Z,21.75
2018-09-06T04:44:31.416Z,21.74
2018-09-06T04:45:31.268Z,21.75
2018-09-06T04:46:31.541Z,21.74
2018-09-06T04:47:31.152Z,21.75
2018-09-06T04:48:31.257Z,21.74
2018-09-06T04:49:31.198Z,21.76
2018-09-06T04:50:31.567Z,21.76
2018-09-06T04:51:31.482Z,21.74
2018-09-06T04:52:31.383Z,21.77
2018-09-06T04:53:31.204Z,21.75
2018-09-06T04:54:31.134Z,21.75
2018-09-06T04:55:31.309Z,21.75
2018-09-06T04:56:31.443Z,21.74
2018-09-06T04:57:31.448Z,21.74
2018-09-06T04:58:31.714Z,21.76
2018-09-06T04:59:31.099Z,21.74
2018-09-06T05:00:31.430Z,21.74
2018-09-06T05:01:31.392Z,21.75
2018-09-06T05:02:31.185Z,21.76
2018-09-06T05:03:31.492Z,21.76
2018-09-06T05:04:31.334Z,21.75
2018-09-06T05:05:31.523Z,21.74
2018-09-06T05:06:31.236Z,21.76
2018-09-06T05:07:31.180Z,21.75
2018-09-06T05:08:31.422Z,21.74
2018-09-06T05:09:31.204Z,21.75
2018-09-06T05:10:31.396Z,21.75
2018-09-06T05:11:31.133Z,21.74
2018-09-06T05:12:31.309Z,21.75
2018-09-06T05:13:31.182Z,21.74
2018-09-06T05:14:31.476Z,21.74
2018-09-06T05:15:31.143Z,21.74
2018-09-06T05:16:31.260Z,21.75
2018-09-06T05:17:31.435Z,21.74
2018-09-06T05:18:31.458Z,21.74
2018-09-06T05:19:31.180Z,21.75
2018-09-06T05:20:31.489Z,21.73
2018-09-06T05:21:31.173Z,21.75
2018-09-06T05:22:31.272Z,21.74
2018-09-06T05:23:31.433Z,21.75
2018-09-06T05:24:31.391Z,21.75
2018-09-06T05:25:31.215Z,21.75
2018-09-06T05:26:31.425Z,21.75
2018-09-06T05:27:31.191Z,21.74
2018-09-06T05:28:31.371Z,21.74
2018-09-06T05:29:31.206Z,21.77
2018-09-06T05:30:31.303Z,21.74
2018-09-06T05:31:31.221Z,21.74
2018-09-06T05:32:31.933Z,21.73
2018-09-06T05:33:31.416Z,21.74
2018-09-06T05:34:31.280Z,21.74
2018-09-06T05:35:31.157Z,21.75
2018-09-06T05:36:32.214Z,21.74
2018-09-06T05:37:31.074Z,21.75
2018-09-06T05:38:31.269Z,21.76
2018-09-06T05:39:31.374Z,21.74
2018-09-06T05:40:31.448Z,21.75
2018-09-06T05:41:31.284Z,21.74
2018-09-06T05:42:31.576Z,21.75
2018-09-06T05:43:31.470Z,21.74
2018-09-06T05:44:31.227Z,21.73
2018-09-06T05:45:31.180Z,21.75
2018-09-06T05:46:31.420Z,21.74
2018-09-06T05:47:31.801Z,21.74
2018-09-06T05:48:31.701Z,21.74
2018-09-06T05:49:31.313Z,21.75
2018-09-06T05:50:31.376Z,21.73
2018-09-06T05:51:31.220Z,21.75
2018-09-06T05:52:31.103Z,21.75
2018-09-06T05:53:31.597Z,21.75
2018-09-06T05:54:31.391Z,21.77
2018-09-06T05:55:31.203Z,21.75
2018-09-06T05:56:31.415Z,21.75
2018-09-06T05:57:31.162Z,21.74
2018-09-06T05:58:31.297Z,21.74
2018-09-06T05:59:32.051Z,21.74
2018-09-06T06:00:31.346Z,21.74
2018-09-06T06:01:31.157Z,21.73
2018-09-06T06:02:31.519Z,21.74
2018-09-06T06:03:31.228Z,21.74
2018-09-06T06:04:31.402Z,21.74
2018-09-06T06:05:31.245Z,21.75
2018-09-06T06:06:31.439Z,21.75
2018-09-06T06:07:31.309Z,21.73
2018-09-06T06:08:31.354Z,21.75
2018-09-06T06:09:31.420Z,21.75
2018-09-06T06:10:31.207Z,21.77
2018-09-06T06:11:31.237Z,21.76
2018-09-06T06:12:31.652Z,21.76
2018-09-06T06:13:31.500Z,21.73
2018-09-06T06:14:31.353Z,21.75
2018-09-06T06:15:31.421Z,21.75
2018-09-06T06:16:31.367Z,21.75
2018-09-06T06:17:31.234Z,21.74
2018-09-06T06:18:31.289Z,21.74
2018-09-06T06:19:31.433Z,21.76
2018-09-06T06:20:31.088Z,21.76
2018-09-06T06:21:31.377Z,21.76
2018-09-06T06:22:31.339Z,21.75
2018-09-06T06:23:31.468Z,21.73
2018-09-06T06:24:31.295Z,21.75
2018-09-06T06:25:31.314Z,21.75
2018-09-06T06:26:31.335Z,21.75
2018-09-06T06:27:31.200Z,21.76
2018-09-06T06:28:31.280Z,21.75
2018-09-06T06:29:31.257Z,21.75
2018-09-06T06:30:31.137Z,21.76
2018-09-06T06:31:31.226Z,21.75
2018-09-06T06:32:31.276Z,21.75
2018-09-06T06:33:31.288Z,21.73
2018-09-06T06:34:31.403Z,21.76
2018-09-06T06:35:31.577Z,21.75
2018-09-06T06:36:31.357Z,21.76
2018-09-06T06:37:31.105Z,21.75
2018-09-06T06:38:31.198Z,21.77
2018-09-06T06:39:31.237Z,21.75
2018-09-06T06:40:31.690Z,21.75
2018-09-06T06:41:31.361Z,21.75
2018-09-06T06:42:31.253Z,21.76
2018-09-06T06:43:31.158Z,21.76
2018-09-06T06:44:31.339Z,21.76
2018-09-06T06:45:31.330Z,21.76
2018-09-06T06:46:31.294Z,21.74
2018-09-06T06:47:31.394Z,21.74
2018-09-06T06:48:31.280Z,21.76
2018-09-06T06:49:31.262Z,21.76
2018-09-06T06:50:32.106Z,21.74
2018-09-06T06:51:31.332Z,21.76
2018-09-06T06:52:31.379Z,21.75
2018-09-06T06:53:31.405Z,21.75
2018-09-06T06:54:31.371Z,21.75
2018-09-06T06:55:32.022Z,21.75
2018-09-06T06:56:31.532Z,21.75
2018-09-06T06:57:31.240Z,21.75
2018-09-06T06:58:31.509Z,21.76
2018-09-06T06:59:31.193Z,21.76
2018-09-06T07:00:31.310Z,21.77
2018-09-06T07:01:31.361Z,21.77
2018-09-06T07:02:31.332Z,21.76
2018-09-06T07:03:31.680Z,21.74
2018-09-06T07:04:31.576Z,21.75
2018-09-06T07:05:31.294Z,21.75
2018-09-06T07:06:31.213Z,21.76
2018-09-06T07:07:31.589Z,21.77
2018-09-06T07:08:31.613Z,21.74
2018-09-06T07:09:31.288Z,21.78
2018-09-06T07:10:31.297Z,21.77
2018-09-06T07:11:31.560Z,21.74
2018-09-06T07:12:31.093Z,21.76
2018-09-06T07:13:31.178Z,21.77
2018-09-06T07:14:31.227Z,21.74
2018-09-06T07:15:31.488Z,21.75
2018-09-06T07:16:31.318Z,21.75
2018-09-06T07:17:31.242Z,21.75
2018-09-06T07:18:31.939Z,21.75
2018-09-06T07:19:31.633Z,21.78
2018-09-06T07:20:31.236Z,21.75
2018-09-06T07:21:31.301Z,21.74
2018-09-06T07:22:31.622Z,21.76
2018-09-06T07:23:31.316Z,21.74
2018-09-06T07:24:31.173Z,21.75
2018-09-06T07:25:31.399Z,21.73
2018-09-06T07:26:31.814Z,21.74
2018-09-06T07:27:31.192Z,21.75
2018-09-06T07:28:31.282Z,21.74
2018-09-06T07:29:31.250Z,21.76
2018-09-06T07:30:31.693Z,21.74
2018-09-06T07:31:31.599Z,21.76
2018-09-06T07:32:31.404Z,21.76
2018-09-06T07:33:31.481Z,21.74
2018-09-06T07:34:31.313Z,21.77
2018-09-06T07:35:31.406Z,21.74
2018-09-06T07:36:31.503Z,21.76
2018-09-06T07:37:31.325Z,21.75
2018-09-06T07:38:31.148Z,21.74
2018-09-06T07:39:31.239Z,21.74
2018-09-06T07:40:31.325Z,21.75
2018-09-06T07:41:32.131Z,21.76
2018-09-06T07:42:31.137Z,21.75
2018-09-06T07:43:31.091Z,21.74
2018-09-06T07:44:31.195Z,21.74
2018-09-06T07:45:31.363Z,21.75
2018-09-06T07:46:31.544Z,21.74
2018-09-06T07:47:31.371Z,21.75
2018-09-06T07:48:31.162Z,21.75
2018-09-06T07:49:31.395Z,21.75
2018-09-06T07:50:31.224Z,21.75
2018-09-06T07:51:32.194Z,21.75
2018-09-06T07:52:31.288Z,21.73
2018-09-06T07:53:31.425Z,21.75
2018-09-06T07:54:31.189Z,21.76
2018-09-06T07:55:31.325Z,21.75
2018-09-06T07:56:31.287Z,21.75
2018-09-06T07:57:31.547Z,21.76
2018-09-06T07:58:31.250Z,21.74
2018-09-06T07:59:31.261Z,21.74
2018-09-06T08:00:31.278Z,21.76
2018-09-06T08:01:31.563Z,21.77
2018-09-06T08:02:31.333Z,21.75
2018-09-06T08:03:31.387Z,21.76
2018-09-06T08:04:31.347Z,21.75
2018-09-06T08:05:31.852Z,21.75
2018-09-06T08:06:31.160Z,21.74
2018-09-06T08:07:31.250Z,21.75
2018-09-06T08:08:31.435Z,21.75
2018-09-06T08:09:31.277Z,21.76
2018-09-06T08:10:31.256Z,21.75
2018-09-06T08:11:31.489Z,21.74
2018-09-06T08:12:31.163Z,21.76
2018-09-06T08:13:31.288Z,21.74
2018-09-06T08:14:31.301Z,21.76
2018-09-06T08:15:31.746Z,21.74
2018-09-06T08:16:31.357Z,21.77
2018-09-06T08:17:31.280Z,21.76
2018-09-06T08:18:31.253Z,21.75
2018-09-06T08:19:31.116Z,21.73
2018-09-06T08:20:31.521Z,21.75
2018-09-06T08:21:31.379Z,21.75
2018-09-06T08:22:31.423Z,21.75
2018-09-06T08:23:31.339Z,21.74
2018-09-06T08:24:31.378Z,21.75
2018-09-06T08:25:31.156Z,21.77
2018-09-06T08:26:31.488Z,21.74
2018-09-06T08:27:31.337Z,21.75
2018-09-06T08:28:31.505Z,21.74
2018-09-06T08:29:31.226Z,21.75
2018-09-06T08:30:31.690Z,21.74
2018-09-06T08:31:31.599Z,21.75
2018-09-06T08:32:31.270Z,21.76
2018-09-06T08:33:31.331Z,21.74
2018-09-06T08:34:31.176Z,21.75
2018-09-06T08:35:31.396Z,21.76
2018-09-06T08:36:31.317Z,21.74
2018-09-06T08:37:31.246Z,21.74
2018-09-06T08:38:31.343Z,21.74
2018-09-06T08:39:31.265Z,21.76
2018-09-06T08:40:31.196Z,21.74
2018-09-06T08:41:31.580Z,21.74
2018-09-06T08:42:31.600Z,21.74
2018-09-06T08:43:31.258Z,21.74
2018-09-06T08:44:31.252Z,21.74
2018-09-06T08:45:32.001Z,21.76
2018-09-06T08:46:31.473Z,21.75
2018-09-06T08:47:31.633Z,21.73
2018-09-06T08:48:31.342Z,21.74
2018-09-06T08:49:31.570Z,21.76
2018-09-06T08:50:31.218Z,21.75
2018-09-06T08:51:31.379Z,21.75
2018-09-06T08:52:32.008Z,21.74
2018-09-06T08:53:31.290Z,21.74
2018-09-06T08:54:31.257Z,21.75
2018-09-06T08:55:31.327Z,21.76
2018-09-06T08:56:31.311Z,21.73
2018-09-06T08:57:31.185Z,21.74
2018-09-06T08:58:31.705Z,21.74
2018-09-06T08:59:31.257Z,21.74
2018-09-06T09:00:31.401Z,21.76
2018-09-06T09:01:31.220Z,21.74
2018-09-06T09:02:31.859Z,21.75
2018-09-06T09:03:31.259Z,21.75
2018-09-06T09:04:31.642Z,21.75
2018-09-06T09:05:31.309Z,21.75
2018-09-06T09:06:31.244Z,21.75
2018-09-06T09:07:31.640Z,21.77
2018-09-06T09:08:31.776Z,21.74
2018-09-06T09:09:31.302Z,21.74
2018-09-06T09:10:31.215Z,21.75
2018-09-06T09:11:31.276Z,21.75
2018-09-06T09:12:31.837Z,21.75
2018-09-06T09:13:31.596Z,21.74
2018-09-06T09:14:31.238Z,21.75
2018-09-06T09:15:31.767Z,21.76
2018-09-06T09:16:31.194Z,21.76
2018-09-06T09:17:31.443Z,21.74
2018-09-06T09:18:31.435Z,21.74
2018-09-06T09:19:31.164Z,21.74
2018-09-06T09:20:31.206Z,21.75
2018-09-06T09:21:31.798Z,21.77
2018-09-06T09:22:31.312Z,21.75
2018-09-06T09:23:31.440Z,21.77
2018-09-06T09:24:31.127Z,21.76
2018-09-06T09:25:31.527Z,21.75
2018-09-06T09:26:31.418Z,21.75
2018-09-06T09:27:31.196Z,21.74
2018-09-06T09:28:31.511Z,21.75
2018-09-06T09:29:31.205Z,21.74
2018-09-06T09:30:31.481Z,21.75
2018-09-06T09:31:31.263Z,21.76
2018-09-06T09:32:31.377Z,21.75
2018-09-06T09:33:31.150Z,21.75
2018-09-06T09:34:31.180Z,21.76
2018-09-06T09:35:31.368Z,21.74
2018-09-06T09:36:31.418Z,21.75
2018-09-06T09:37:31.152Z,21.74
2018-09-06T09:38:31.307Z,21.78
2018-09-06T09:39:31.182Z,21.76
2018-09-06T09:40:31.449Z,21.77
2018-09-06T09:41:31.177Z,21.75
2018-09-06T09:42:31.367Z,21.77
2018-09-06T09:43:31.467Z,21.74
2018-09-06T09:44:31.362Z,21.76
2018-09-06T09:45:31.276Z,21.74
2018-09-06T09:48:31.315Z,21.74
2018-09-06T09:49:31.566Z,21.77
2018-09-06T09:51:31.350Z,21.76
2018-09-06T09:52:31.749Z,21.77
2018-09-06T09:53:31.584Z,21.74
2018-09-06T09:54:31.169Z,21.76
2018-09-06T09:55:31.342Z,21.76
2018-09-06T09:56:31.281Z,21.74
2018-09-06T09:57:31.167Z,21.75
2018-09-06T09:58:31.379Z,21.76
2018-09-06T09:59:31.177Z,21.77
2018-09-06T10:00:31.227Z,21.74
2018-09-06T10:01:31.125Z,21.77
2018-09-06T10:02:31.414Z,21.78
2018-09-06T10:03:31.233Z,21.77
2018-09-06T10:04:31.312Z,21.74
2018-09-06T10:05:31.267Z,21.77
2018-09-06T10:06:31.740Z,21.76
2018-09-06T10:07:31.552Z,21.77
2018-09-06T10:08:31.270Z,21.76
2018-09-06T10:09:31.436Z,21.77
2018-09-06T10:10:31.105Z,21.78
2018-09-06T10:11:31.495Z,21.74
2018-09-06T10:12:31.064Z,21.77
2018-09-06T10:13:31.135Z,21.77
2018-09-06T10:14:31.333Z,21.76
2018-09-06T10:15:31.277Z,21.78
2018-09-06T10:16:31.231Z,21.75
2018-09-06T10:17:31.522Z,21.76
2018-09-06T10:18:31.233Z,21.74
2018-09-06T10:19:31.238Z,21.76
2018-09-06T10:20:31.340Z,21.76
2018-09-06T10:21:31.204Z,21.76
2018-09-06T10:22:31.327Z,21.77
2018-09-06T10:23:31.346Z,21.75
2018-09-06T10:24:31.414Z,21.76
2018-09-06T10:25:31.353Z,21.77
2018-09-06T10:26:31.310Z,21.74
2018-09-06T10:27:31.137Z,21.76
2018-09-06T10:28:31.318Z,21.76
2018-09-06T10:29:31.157Z,21.76
2018-09-06T10:30:31.269Z,21.76
2018-09-06T10:31:31.280Z,21.76
2018-09-06T10:32:31.083Z,21.73
2018-09-06T10:33:31.279Z,21.75
2018-09-06T10:34:31.160Z,21.75
2018-09-06T10:35:31.617Z,21.75
2018-09-06T10:36:31.359Z,21.75
2018-09-06T10:37:31.521Z,21.77
2018-09-06T10:38:31.149Z,21.74
2018-09-06T10:39:31.345Z,21.75
2018-09-06T10:40:31.637Z,21.76
2018-09-06T10:41:31.392Z,21.76
2018-09-06T10:42:31.063Z,21.76
2018-09-06T10:43:31.119Z,21.75
2018-09-06T10:44:31.534Z,21.77
2018-09-06T10:45:31.172Z,21.75
2018-09-06T10:46:31.209Z,21.76
2018-09-06T10:47:31.228Z,21.76
2018-09-06T10:48:31.494Z,21.76
2018-09-06T10:49:31.281Z,21.77
2018-09-06T10:50:31.304Z,21.75
2018-09-06T10:51:31.405Z,21.76
2018-09-06T10:52:31.155Z,21.77
2018-09-06T10:53:31.251Z,21.75
2018-09-06T10:54:31.358Z,21.77
2018-09-06T10:55:31.216Z,21.76
2018-09-06T10:56:31.358Z,21.77
2018-09-06T10:57:31.239Z,21.76
2018-09-06T10:58:31.158Z,21.76
2018-09-06T10:59:31.260Z,21.77
2018-09-06T11:00:31.562Z,21.75
2018-09-06T11:01:31.448Z,21.76
2018-09-06T11:02:31.308Z,21.76
2018-09-06T11:03:31.324Z,21.77
2018-09-06T11:04:32.118Z,21.76
2018-09-06T11:05:31.187Z,21.75
2018-09-06T11:06:31.311Z,21.75
2018-09-06T11:07:31.344Z,21.77
2018-09-06T11:08:31.278Z,21.75
2018-09-06T11:09:31.067Z,21.76
2018-09-06T11:10:31.833Z,21.74
2018-09-06T11:11:31.247Z,21.75
2018-09-06T11:12:31.257Z,21.76
2018-09-06T11:13:31.310Z,21.77
2018-09-06T11:14:31.323Z,21.75
2018-09-06T11:15:31.274Z,21.77
2018-09-06T11:16:31.224Z,21.75
2018-09-06T11:17:31.293Z,21.75
2018-09-06T11:18:31.513Z,21.76
2018-09-06T11:19:31.424Z,21.76
2018-09-06T11:20:31.522Z,21.76
2018-09-06T11:21:31.788Z,21.77
2018-09-06T11:22:33.717Z,21.77
2018-09-06T11:23:31.572Z,21.77
2018-09-06T11:24:31.348Z,21.75
2018-09-06T11:25:31.236Z,21.77
2018-09-06T11:26:31.181Z,21.76
2018-09-06T11:27:31.652Z,21.75
2018-09-06T11:28:31.595Z,21.77
2018-09-06T11:29:31.294Z,21.77
2018-09-06T11:30:31.132Z,21.77
2018-09-06T11:31:31.317Z,21.75
2018-09-06T11:32:31.118Z,21.76
2018-09-06T11:33:31.220Z,21.77
2018-09-06T11:34:31.445Z,21.77
2018-09-06T11:35:31.288Z,21.75
2018-09-06T11:36:31.412Z,21.79
2018-09-06T11:37:31.322Z,21.75
2018-09-06T11:38:31.315Z,21.76
2018-09-06T11:39:31.192Z,21.76
2018-09-06T11:40:32.132Z,21.76
2018-09-06T11:41:31.431Z,21.75
2018-09-06T11:42:31.088Z,21.75
2018-09-06T11:43:31.743Z,21.77
2018-09-06T11:44:31.304Z,21.77
2018-09-06T11:45:31.161Z,21.75
2018-09-06T11:46:31.279Z,21.77
2018-09-06T11:47:31.407Z,21.77
2018-09-06T11:48:31.369Z,21.78
2018-09-06T11:49:31.339Z,21.77
2018-09-06T11:50:31.250Z,21.76
2018-09-06T11:51:31.219Z,21.78
2018-09-06T11:52:31.283Z,21.77
2018-09-06T11:53:31.101Z,21.77
2018-09-06T11:54:31.272Z,21.76
2018-09-06T11:55:31.352Z,21.74
2018-09-06T11:56:31.340Z,21.76
2018-09-06T11:57:31.241Z,21.77
2018-09-06T11:58:31.233Z,21.77
2018-09-06T11:59:31.118Z,21.74
2018-09-06T12:00:31.127Z,21.77
2018-09-06T12:01:31.195Z,21.75
2018-09-06T12:02:31.329Z,21.75
2018-09-06T12:03:31.472Z,21.77
2018-09-06T12:04:34.154Z,21.77
2018-09-06T12:05:31.311Z,21.77
2018-09-06T12:06:31.288Z,21.75
2018-09-06T12:07:31.414Z,21.75
2018-09-06T12:08:31.130Z,21.76
2018-09-06T12:09:31.108Z,21.77
2018-09-06T12:10:31.142Z,21.75
2018-09-06T12:11:31.191Z,21.77
2018-09-06T12:12:31.363Z,21.77
2018-09-06T12:13:31.134Z,21.8
2018-09-06T12:14:31.179Z,21.77
2018-09-06T12:15:31.137Z,21.76
2018-09-06T12:16:31.200Z,21.76
2018-09-06T12:17:31.238Z,21.77
2018-09-06T12:18:31.306Z,21.76
2018-09-06T12:19:31.673Z,21.77
2018-09-06T12:20:31.367Z,21.76
2018-09-06T12:21:31.136Z,21.76
2018-09-06T12:22:31.211Z,21.74
2018-09-06T12:23:31.278Z,21.75
2018-09-06T12:24:31.426Z,21.76
2018-09-06T12:25:31.615Z,21.76
2018-09-06T12:26:31.380Z,21.77
2018-09-06T12:27:31.353Z,21.78
2018-09-06T12:28:31.356Z,21.77
2018-09-06T12:29:31.135Z,21.76
2018-09-06T12:30:31.228Z,21.77
2018-09-06T12:31:31.104Z,21.76
2018-09-06T12:32:31.576Z,21.77
2018-09-06T12:33:31.565Z,21.79
2018-09-06T12:34:31.383Z,21.78
2018-09-06T12:35:31.220Z,21.8
2018-09-06T12:36:31.307Z,21.8
2018-09-06T12:37:31.167Z,21.81
2018-09-06T12:38:31.320Z,21.83
2018-09-06T12:39:31.586Z,21.83
2018-09-06T12:40:31.141Z,21.84
2018-09-06T12:41:31.261Z,21.84
2018-09-06T12:42:31.156Z,21.84
2018-09-06T12:43:31.443Z,21.87
2018-09-06T12:44:31.233Z,21.87
2018-09-06T12:45:31.182Z,21.88
2018-09-06T12:46:31.156Z,21.9
2018-09-06T12:47:31.298Z,21.89
2018-09-06T12:48:31.090Z,21.93
2018-09-06T12:49:31.465Z,21.93
2018-09-06T12:50:31.364Z,21.9
2018-09-06T12:51:31.401Z,21.94
2018-09-06T12:52:31.333Z,21.93
2018-09-06T12:53:31.374Z,21.94
2018-09-06T12:54:31.334Z,21.95
2018-09-06T12:55:31.328Z,21.94
2018-09-06T12:56:31.381Z,21.96
2018-09-06T12:57:31.097Z,21.99